Jyllinge, Denmark
Current Conditions -  °F | °C
As of 9:50 AM on Monday 22 Dec 2014 (Local Time) from EKRK Reporting Station
Light Rain Light Rain  
Wind Chill:   Ceiling: 1100
Heat Index:   Visibility: 4mi
Dew Point:   Wind: 13mph
Humidity: 100%   Direction: 250°WSW
Pressure: 29.47"   Gusts: NA
Location:  55.76°N, 12.11°E
Report Text: EKRK 220850Z AUTO 25011KT 7000NDV -RA FEW006/// SCT009///BKN011/// OVC014/// 09/09 Q0998
Loading
Personal Weather Stations






























Interactive Weather Map New forecast layout! Learn more

10-Day Weather Forecast

Advertisements
Track Severe Weather on mobile